sensor_id;sensor_type;location;lat;lon;timestamp;pressure;altitude;pressure_sealevel;temperature;humidity
2675;BME280;1347;42.122;24.746;2023-03-13T00:01:48;99924.53;;;4.70;61.79
2675;BME280;1347;42.122;24.746;2023-03-13T00:04:15;99919.88;;;4.79;61.42
2675;BME280;1347;42.122;24.746;2023-03-13T00:06:44;99927.38;;;4.91;60.35
2675;BME280;1347;42.122;24.746;2023-03-13T00:09:12;99921.31;;;4.94;60.48
2675;BME280;1347;42.122;24.746;2023-03-13T00:11:40;99921.81;;;4.96;61.25
2675;BME280;1347;42.122;24.746;2023-03-13T00:14:07;99919.88;;;4.96;59.76
2675;BME280;1347;42.122;24.746;2023-03-13T00:16:34;99926.72;;;5.02;59.30
2675;BME280;1347;42.122;24.746;2023-03-13T00:19:03;99930.25;;;5.03;58.56
2675;BME280;1347;42.122;24.746;2023-03-13T00:21:30;99932.81;;;5.08;57.70
2675;BME280;1347;42.122;24.746;2023-03-13T00:23:59;99932.94;;;5.11;58.33
2675;BME280;1347;42.122;24.746;2023-03-13T00:26:27;99928.00;;;5.13;58.64
2675;BME280;1347;42.122;24.746;2023-03-13T00:28:54;99920.16;;;5.12;58.30
2675;BME280;1347;42.122;24.746;2023-03-13T00:31:23;99928.34;;;5.03;57.58
2675;BME280;1347;42.122;24.746;2023-03-13T00:33:52;99920.63;;;5.14;56.71
2675;BME280;1347;42.122;24.746;2023-03-13T00:36:20;99919.84;;;5.13;56.72
2675;BME280;1347;42.122;24.746;2023-03-13T00:38:48;99919.19;;;5.16;56.54
2675;BME280;1347;42.122;24.746;2023-03-13T00:41:18;99918.41;;;5.16;56.30
2675;BME280;1347;42.122;24.746;2023-03-13T00:43:46;99911.66;;;5.22;55.88
2675;BME280;1347;42.122;24.746;2023-03-13T00:46:14;99910.69;;;5.27;55.70
2675;BME280;1347;42.122;24.746;2023-03-13T00:48:42;99915.34;;;5.26;55.70
2675;BME280;1347;42.122;24.746;2023-03-13T00:51:09;99916.63;;;5.29;55.44
2675;BME280;1347;42.122;24.746;2023-03-13T00:53:36;99907.19;;;5.26;55.79
2675;BME280;1347;42.122;24.746;2023-03-13T00:56:05;99907.78;;;5.32;55.77
2675;BME280;1347;42.122;24.746;2023-03-13T00:58:35;99911.19;;;5.29;55.98
2675;BME280;1347;42.122;24.746;2023-03-13T01:01:07;99915.19;;;5.23;56.08
2675;BME280;1347;42.122;24.746;2023-03-13T01:03:35;99913.25;;;5.23;56.12
2675;BME280;1347;42.122;24.746;2023-03-13T01:06:04;99909.41;;;5.24;55.95
2675;BME280;1347;42.122;24.746;2023-03-13T01:08:32;99910.53;;;5.23;56.00
2675;BME280;1347;42.122;24.746;2023-03-13T01:10:59;99907.66;;;5.19;56.00
2675;BME280;1347;42.122;24.746;2023-03-13T01:13:27;99913.09;;;5.19;56.12
2675;BME280;1347;42.122;24.746;2023-03-13T01:15:55;99906.41;;;5.17;56.21
2675;BME280;1347;42.122;24.746;2023-03-13T01:18:22;99911.06;;;5.08;56.50
2675;BME280;1347;42.122;24.746;2023-03-13T01:20:49;99909.47;;;5.07;56.02
2675;BME280;1347;42.122;24.746;2023-03-13T01:23:16;99915.88;;;5.02;56.09
2675;BME280;1347;42.122;24.746;2023-03-13T01:25:43;99919.69;;;5.01;55.97
2675;BME280;1347;42.122;24.746;2023-03-13T01:28:10;99920.69;;;4.97;56.06
2675;BME280;1347;42.122;24.746;2023-03-13T01:30:37;99911.88;;;4.91;56.20
2675;BME280;1347;42.122;24.746;2023-03-13T01:33:05;99921.16;;;4.90;56.37
2675;BME280;1347;42.122;24.746;2023-03-13T01:35:32;99928.84;;;4.88;56.48
2675;BME280;1347;42.122;24.746;2023-03-13T01:37:59;99929.97;;;4.87;56.40
2675;BME280;1347;42.122;24.746;2023-03-13T01:40:26;99930.44;;;4.80;56.82
2675;BME280;1347;42.122;24.746;2023-03-13T01:42:54;99938.44;;;4.77;56.93
2675;BME280;1347;42.122;24.746;2023-03-13T01:45:56;99932.66;;;4.70;57.16
2675;BME280;1347;42.122;24.746;2023-03-13T01:48:30;99938.09;;;4.61;57.54
2675;BME280;1347;42.122;24.746;2023-03-13T01:51:00;99941.94;;;4.60;57.70
2675;BME280;1347;42.122;24.746;2023-03-13T01:53:30;99947.84;;;4.54;57.93
2675;BME280;1347;42.122;24.746;2023-03-13T01:56:00;99942.72;;;4.43;58.37
2675;BME280;1347;42.122;24.746;2023-03-13T01:58:30;99942.72;;;4.43;58.40
2675;BME280;1347;42.122;24.746;2023-03-13T02:00:57;99947.34;;;4.34;58.47
2675;BME280;1347;42.122;24.746;2023-03-13T02:03:27;99949.28;;;4.34;58.68
2675;BME280;1347;42.122;24.746;2023-03-13T02:05:55;99951.00;;;4.30;58.88
2675;BME280;1347;42.122;24.746;2023-03-13T02:08:28;99951.16;;;4.25;58.83
2675;BME280;1347;42.122;24.746;2023-03-13T02:11:03;99960.13;;;4.25;59.17
2675;BME280;1347;42.122;24.746;2023-03-13T02:13:33;99966.31;;;4.17;59.41
2675;BME280;1347;42.122;24.746;2023-03-13T02:16:00;99971.09;;;4.20;59.24
2675;BME280;1347;42.122;24.746;2023-03-13T02:18:29;99969.03;;;4.17;59.38
2675;BME280;1347;42.122;24.746;2023-03-13T02:21:00;99982.13;;;4.15;59.65
2675;BME280;1347;42.122;24.746;2023-03-13T02:23:35;99981.00;;;4.16;59.73
2675;BME280;1347;42.122;24.746;2023-03-13T02:26:06;99971.56;;;4.14;59.73
2675;BME280;1347;42.122;24.746;2023-03-13T02:28:34;99981.44;;;4.10;59.73
2675;BME280;1347;42.122;24.746;2023-03-13T02:31:04;99982.91;;;4.07;60.04
2675;BME280;1347;42.122;24.746;2023-03-13T02:33:34;99992.16;;;4.06;60.30
2675;BME280;1347;42.122;24.746;2023-03-13T02:36:03;99991.47;;;4.00;60.32
2675;BME280;1347;42.122;24.746;2023-03-13T02:38:33;99999.75;;;3.95;60.37
2675;BME280;1347;42.122;24.746;2023-03-13T02:41:01;99997.69;;;4.01;60.33
2675;BME280;1347;42.122;24.746;2023-03-13T02:43:33;100003.94;;;4.01;60.47
2675;BME280;1347;42.122;24.746;2023-03-13T02:46:01;100003.94;;;4.01;60.25
2675;BME280;1347;42.122;24.746;2023-03-13T02:48:31;100013.03;;;4.05;60.10
2675;BME280;1347;42.122;24.746;2023-03-13T02:51:00;100021.00;;;4.02;60.23
2675;BME280;1347;42.122;24.746;2023-03-13T02:53:27;100017.00;;;3.99;60.35
2675;BME280;1347;42.122;24.746;2023-03-13T02:55:55;100021.59;;;3.90;60.81
2675;BME280;1347;42.122;24.746;2023-03-13T02:58:23;100020.16;;;3.93;60.62
2675;BME280;1347;42.122;24.746;2023-03-13T03:00:51;100019.50;;;3.87;60.70
2675;BME280;1347;42.122;24.746;2023-03-13T03:03:18;100025.56;;;3.84;60.81
2675;BME280;1347;42.122;24.746;2023-03-13T03:05:45;100025.06;;;3.82;61.03
2675;BME280;1347;42.122;24.746;2023-03-13T03:08:12;100029.81;;;3.77;60.96
2675;BME280;1347;42.122;24.746;2023-03-13T03:10:39;100031.06;;;3.70;61.38
2675;BME280;1347;42.122;24.746;2023-03-13T03:13:06;100046.84;;;3.68;61.40
2675;BME280;1347;42.122;24.746;2023-03-13T03:15:33;100043.97;;;3.65;61.64
2675;BME280;1347;42.122;24.746;2023-03-13T03:18:01;100050.13;;;3.57;62.02
2675;BME280;1347;42.122;24.746;2023-03-13T03:20:28;100051.84;;;3.53;62.36
2675;BME280;1347;42.122;24.746;2023-03-13T03:22:55;100067.13;;;3.49;62.40
2675;BME280;1347;42.122;24.746;2023-03-13T03:25:22;100066.63;;;3.47;62.52
2675;BME280;1347;42.122;24.746;2023-03-13T03:27:48;100076.66;;;3.46;62.48
2675;BME280;1347;42.122;24.746;2023-03-13T03:30:15;100080.31;;;3.42;62.87
2675;BME280;1347;42.122;24.746;2023-03-13T03:32:42;100083.94;;;3.37;62.71
2675;BME280;1347;42.122;24.746;2023-03-13T03:35:11;100092.50;;;3.30;62.78
2675;BME280;1347;42.122;24.746;2023-03-13T03:37:37;100091.69;;;3.30;63.21
2675;BME280;1347;42.122;24.746;2023-03-13T03:40:05;100092.19;;;3.32;63.50
2675;BME280;1347;42.122;24.746;2023-03-13T03:42:32;100104.13;;;3.31;63.26
2675;BME280;1347;42.122;24.746;2023-03-13T03:44:59;100103.28;;;3.22;63.76
2675;BME280;1347;42.122;24.746;2023-03-13T03:47:26;100110.69;;;3.16;63.98
2675;BME280;1347;42.122;24.746;2023-03-13T03:49:53;100115.94;;;3.13;64.27
2675;BME280;1347;42.122;24.746;2023-03-13T03:52:21;100105.91;;;3.13;64.43
2675;BME280;1347;42.122;24.746;2023-03-13T03:54:48;100109.13;;;3.15;64.03
2675;BME280;1347;42.122;24.746;2023-03-13T03:57:15;100115.44;;;3.11;64.34
2675;BME280;1347;42.122;24.746;2023-03-13T03:59:42;100109.22;;;3.10;64.69
2675;BME280;1347;42.122;24.746;2023-03-13T04:02:09;100115.44;;;3.11;64.56
2675;BME280;1347;42.122;24.746;2023-03-13T04:04:36;100118.75;;;3.08;64.73
2675;BME280;1347;42.122;24.746;2023-03-13T04:07:03;100116.16;;;3.03;65.05
2675;BME280;1347;42.122;24.746;2023-03-13T04:09:31;100118.38;;;3.01;65.11
2675;BME280;1347;42.122;24.746;2023-03-13T04:11:58;100134.03;;;3.04;65.53
2675;BME280;1347;42.122;24.746;2023-03-13T04:14:25;100133.81;;;3.00;65.38
2675;BME280;1347;42.122;24.746;2023-03-13T04:16:52;100131.63;;;3.02;65.48
2675;BME280;1347;42.122;24.746;2023-03-13T04:19:19;100134.31;;;3.02;65.67
2675;BME280;1347;42.122;24.746;2023-03-13T04:21:45;100138.13;;;3.01;65.44
2675;BME280;1347;42.122;24.746;2023-03-13T04:24:12;100139.97;;;2.92;66.00
2675;BME280;1347;42.122;24.746;2023-03-13T04:26:41;100146.47;;;2.91;65.89
2675;BME280;1347;42.122;24.746;2023-03-13T04:29:07;100147.69;;;2.85;66.25
2675;BME280;1347;42.122;24.746;2023-03-13T04:31:34;100148.38;;;2.77;66.74
2675;BME280;1347;42.122;24.746;2023-03-13T04:34:01;100144.41;;;2.74;66.61
2675;BME280;1347;42.122;24.746;2023-03-13T04:36:28;100153.41;;;2.70;67.08
2675;BME280;1347;42.122;24.746;2023-03-13T04:38:55;100172.56;;;2.73;67.05
2675;BME280;1347;42.122;24.746;2023-03-13T04:41:22;100173.38;;;2.74;67.03
2675;BME280;1347;42.122;24.746;2023-03-13T04:43:50;100175.28;;;2.73;67.08
2675;BME280;1347;42.122;24.746;2023-03-13T04:46:17;100179.38;;;2.71;67.04
2675;BME280;1347;42.122;24.746;2023-03-13T04:48:44;100181.38;;;2.65;67.60
2675;BME280;1347;42.122;24.746;2023-03-13T04:51:11;100190.19;;;2.71;67.47
2675;BME280;1347;42.122;24.746;2023-03-13T04:53:38;100186.47;;;2.67;67.52
2675;BME280;1347;42.122;24.746;2023-03-13T04:56:05;100181.78;;;2.72;67.54
2675;BME280;1347;42.122;24.746;2023-03-13T04:58:32;100185.19;;;2.64;67.65
2675;BME280;1347;42.122;24.746;2023-03-13T05:01:01;100194.28;;;2.54;68.34
2675;BME280;1347;42.122;24.746;2023-03-13T05:03:27;100190.09;;;2.48;68.58
2675;BME280;1347;42.122;24.746;2023-03-13T05:05:54;100195.78;;;2.47;68.83
2675;BME280;1347;42.122;24.746;2023-03-13T05:08:21;100206.72;;;2.55;68.63
2675;BME280;1347;42.122;24.746;2023-03-13T05:10:48;100201.31;;;2.55;68.61
2675;BME280;1347;42.122;24.746;2023-03-13T05:13:15;100205.63;;;2.56;68.92
2675;BME280;1347;42.122;24.746;2023-03-13T05:15:43;100209.63;;;2.59;68.75
2675;BME280;1347;42.122;24.746;2023-03-13T05:18:11;100213.44;;;2.58;68.66
2675;BME280;1347;42.122;24.746;2023-03-13T05:20:38;100216.75;;;2.69;68.90
2675;BME280;1347;42.122;24.746;2023-03-13T05:23:05;100220.19;;;2.74;68.67
2675;BME280;1347;42.122;24.746;2023-03-13T05:25:32;100219.06;;;2.75;68.70
2675;BME280;1347;42.122;24.746;2023-03-13T05:27:59;100228.19;;;2.52;68.63
2675;BME280;1347;42.122;24.746;2023-03-13T05:30:26;100237.00;;;2.44;69.07
2675;BME280;1347;42.122;24.746;2023-03-13T05:32:53;100237.19;;;2.47;69.65
2675;BME280;1347;42.122;24.746;2023-03-13T05:35:21;100235.91;;;2.58;69.45
2675;BME280;1347;42.122;24.746;2023-03-13T05:37:48;100243.25;;;2.72;69.03
2675;BME280;1347;42.122;24.746;2023-03-13T05:40:15;100241.75;;;2.79;68.43
2675;BME280;1347;42.122;24.746;2023-03-13T05:42:42;100244.16;;;2.94;67.94
2675;BME280;1347;42.122;24.746;2023-03-13T05:45:10;100242.25;;;3.09;67.36
2675;BME280;1347;42.122;24.746;2023-03-13T05:47:37;100243.63;;;3.20;66.45
2675;BME280;1347;42.122;24.746;2023-03-13T05:50:05;100250.53;;;3.26;65.87
2675;BME280;1347;42.122;24.746;2023-03-13T05:52:34;100248.94;;;3.39;65.33
2675;BME280;1347;42.122;24.746;2023-03-13T05:55:00;100256.38;;;3.69;64.58
2675;BME280;1347;42.122;24.746;2023-03-13T05:57:27;100260.59;;;3.97;63.84
2675;BME280;1347;42.122;24.746;2023-03-13T05:59:54;100262.16;;;4.34;62.78
2675;BME280;1347;42.122;24.746;2023-03-13T06:02:21;100265.72;;;4.66;61.35
2675;BME280;1347;42.122;24.746;2023-03-13T06:04:48;100264.25;;;4.99;60.29
2675;BME280;1347;42.122;24.746;2023-03-13T06:07:15;100260.34;;;5.31;58.01
2675;BME280;1347;42.122;24.746;2023-03-13T06:09:43;100268.59;;;5.66;57.22
2675;BME280;1347;42.122;24.746;2023-03-13T06:12:10;100274.72;;;5.97;56.49
2675;BME280;1347;42.122;24.746;2023-03-13T06:14:37;100273.75;;;6.27;55.54
2675;BME280;1347;42.122;24.746;2023-03-13T06:17:05;100267.78;;;6.51;54.55
2675;BME280;1347;42.122;24.746;2023-03-13T06:19:32;100272.19;;;6.82;53.76
2675;BME280;1347;42.122;24.746;2023-03-13T06:21:58;100273.78;;;7.21;53.20
2675;BME280;1347;42.122;24.746;2023-03-13T06:24:25;100273.59;;;7.55;51.29
2675;BME280;1347;42.122;24.746;2023-03-13T06:26:57;100283.34;;;8.06;50.63
2675;BME280;1347;42.122;24.746;2023-03-13T06:29:24;100279.50;;;8.61;48.92
2675;BME280;1347;42.122;24.746;2023-03-13T06:31:51;100290.88;;;9.33;47.40
2675;BME280;1347;42.122;24.746;2023-03-13T06:34:17;100285.84;;;9.10;46.63
2675;BME280;1347;42.122;24.746;2023-03-13T06:36:44;100285.88;;;9.99;45.69
2675;BME280;1347;42.122;24.746;2023-03-13T06:39:11;100289.59;;;10.90;43.42
2675;BME280;1347;42.122;24.746;2023-03-13T06:41:38;100280.53;;;11.68;42.70
2675;BME280;1347;42.122;24.746;2023-03-13T06:44:06;100284.78;;;13.01;39.63
2675;BME280;1347;42.122;24.746;2023-03-13T06:46:33;100283.31;;;13.56;38.33
2675;BME280;1347;42.122;24.746;2023-03-13T06:49:00;100279.03;;;14.45;37.64
2675;BME280;1347;42.122;24.746;2023-03-13T06:51:30;100278.84;;;16.17;35.49
2675;BME280;1347;42.122;24.746;2023-03-13T06:53:58;100286.22;;;16.89;34.04
2675;BME280;1347;42.122;24.746;2023-03-13T06:56:24;100285.31;;;18.20;32.25
2675;BME280;1347;42.122;24.746;2023-03-13T06:58:51;100281.56;;;19.66;30.89
2675;BME280;1347;42.122;24.746;2023-03-13T07:01:20;100287.53;;;20.39;30.00
2675;BME280;1347;42.122;24.746;2023-03-13T07:03:47;100290.50;;;21.59;28.73
2675;BME280;1347;42.122;24.746;2023-03-13T07:06:15;100287.81;;;21.56;28.31
2675;BME280;1347;42.122;24.746;2023-03-13T07:08:43;100283.38;;;20.54;29.68
2675;BME280;1347;42.122;24.746;2023-03-13T07:11:14;100277.34;;;20.86;29.45
2675;BME280;1347;42.122;24.746;2023-03-13T07:13:41;100281.66;;;20.91;28.43
2675;BME280;1347;42.122;24.746;2023-03-13T07:16:09;100284.03;;;22.09;28.03
2675;BME280;1347;42.122;24.746;2023-03-13T07:18:38;100277.69;;;22.64;26.98
2675;BME280;1347;42.122;24.746;2023-03-13T07:21:09;100283.97;;;22.88;26.24
2675;BME280;1347;42.122;24.746;2023-03-13T07:23:36;100283.03;;;24.46;25.01
2675;BME280;1347;42.122;24.746;2023-03-13T07:26:04;100280.00;;;24.41;24.42
2675;BME280;1347;42.122;24.746;2023-03-13T07:28:32;100288.56;;;26.08;24.11
2675;BME280;1347;42.122;24.746;2023-03-13T07:31:03;100288.75;;;27.95;22.45
2675;BME280;1347;42.122;24.746;2023-03-13T07:33:31;100290.03;;;29.15;22.10
2675;BME280;1347;42.122;24.746;2023-03-13T07:35:59;100285.28;;;27.05;22.51
2675;BME280;1347;42.122;24.746;2023-03-13T07:38:26;100291.13;;;26.58;22.46
2675;BME280;1347;42.122;24.746;2023-03-13T07:40:55;100283.41;;;28.34;22.48
2675;BME280;1347;42.122;24.746;2023-03-13T07:43:23;100284.97;;;29.76;21.09
2675;BME280;1347;42.122;24.746;2023-03-13T07:45:51;100280.13;;;30.59;20.52
2675;BME280;1347;42.122;24.746;2023-03-13T07:48:19;100280.19;;;29.10;20.49
2675;BME280;1347;42.122;24.746;2023-03-13T07:50:47;100283.09;;;27.95;22.05
2675;BME280;1347;42.122;24.746;2023-03-13T07:53:16;100281.56;;;29.15;21.59
2675;BME280;1347;42.122;24.746;2023-03-13T07:55:56;100271.25;;;28.70;21.05
2675;BME280;1347;42.122;24.746;2023-03-13T07:58:25;100274.19;;;29.89;20.99
2675;BME280;1347;42.122;24.746;2023-03-13T08:00:52;100276.91;;;30.81;20.29
2675;BME280;1347;42.122;24.746;2023-03-13T08:03:20;100283.66;;;31.73;19.76
2675;BME280;1347;42.122;24.746;2023-03-13T08:05:47;100278.16;;;31.50;19.21
2675;BME280;1347;42.122;24.746;2023-03-13T08:08:24;100280.38;;;31.40;19.50
2675;BME280;1347;42.122;24.746;2023-03-13T08:10:51;100281.53;;;32.66;19.00
2675;BME280;1347;42.122;24.746;2023-03-13T08:13:18;100272.25;;;32.97;18.77
2675;BME280;1347;42.122;24.746;2023-03-13T08:15:45;100259.41;;;33.55;18.18
2675;BME280;1347;42.122;24.746;2023-03-13T08:18:11;100264.09;;;34.57;17.95
2675;BME280;1347;42.122;24.746;2023-03-13T08:20:38;100261.09;;;33.84;18.06
2675;BME280;1347;42.122;24.746;2023-03-13T08:23:05;100259.06;;;32.63;18.48
2675;BME280;1347;42.122;24.746;2023-03-13T08:25:33;100258.81;;;32.35;18.25
2675;BME280;1347;42.122;24.746;2023-03-13T08:28:00;100258.75;;;33.29;18.24
2675;BME280;1347;42.122;24.746;2023-03-13T08:30:27;100250.09;;;34.59;17.86
2675;BME280;1347;42.122;24.746;2023-03-13T08:32:54;100253.75;;;35.73;17.34
2675;BME280;1347;42.122;24.746;2023-03-13T08:35:21;100261.88;;;35.47;17.12
2675;BME280;1347;42.122;24.746;2023-03-13T08:37:48;100257.78;;;35.94;16.56
2675;BME280;1347;42.122;24.746;2023-03-13T08:40:15;100250.91;;;35.73;16.66
2675;BME280;1347;42.122;24.746;2023-03-13T08:42:43;100254.38;;;36.42;17.05
2675;BME280;1347;42.122;24.746;2023-03-13T08:45:10;100250.28;;;35.91;16.87
2675;BME280;1347;42.122;24.746;2023-03-13T08:47:37;100250.34;;;37.16;16.79
2675;BME280;1347;42.122;24.746;2023-03-13T08:50:05;100257.66;;;38.94;15.79
2675;BME280;1347;42.122;24.746;2023-03-13T08:52:32;100250.97;;;39.05;15.28
2675;BME280;1347;42.122;24.746;2023-03-13T08:54:59;100248.22;;;37.84;15.53
2675;BME280;1347;42.122;24.746;2023-03-13T08:57:26;100250.41;;;39.32;15.37
2675;BME280;1347;42.122;24.746;2023-03-13T08:59:54;100254.50;;;39.11;15.55
2675;BME280;1347;42.122;24.746;2023-03-13T09:02:21;100261.34;;;40.41;15.07
2675;BME280;1347;42.122;24.746;2023-03-13T09:04:48;100257.88;;;41.34;15.00
2675;BME280;1347;42.122;24.746;2023-03-13T09:07:15;100255.38;;;42.10;14.74
2675;BME280;1347;42.122;24.746;2023-03-13T09:09:42;100257.34;;;41.43;15.13
2675;BME280;1347;42.122;24.746;2023-03-13T09:12:09;100261.34;;;42.27;14.34
2675;BME280;1347;42.122;24.746;2023-03-13T09:14:37;100259.66;;;41.44;14.45
2675;BME280;1347;42.122;24.746;2023-03-13T09:17:06;100254.31;;;41.48;14.39
2675;BME280;1347;42.122;24.746;2023-03-13T09:19:33;100248.19;;;40.46;14.68
2675;BME280;1347;42.122;24.746;2023-03-13T09:22:00;100238.16;;;40.60;14.65
2675;BME280;1347;42.122;24.746;2023-03-13T09:24:27;100235.75;;;40.09;14.34
2675;BME280;1347;42.122;24.746;2023-03-13T09:26:54;100235.16;;;41.15;14.84
2675;BME280;1347;42.122;24.746;2023-03-13T09:29:21;100231.22;;;42.66;13.94
2675;BME280;1347;42.122;24.746;2023-03-13T09:31:48;100238.97;;;43.49;13.71
2675;BME280;1347;42.122;24.746;2023-03-13T09:34:16;100233.38;;;43.66;13.46
2675;BME280;1347;42.122;24.746;2023-03-13T09:36:43;100234.13;;;42.81;13.67
2675;BME280;1347;42.122;24.746;2023-03-13T09:39:10;100231.47;;;43.54;13.46
2675;BME280;1347;42.122;24.746;2023-03-13T09:41:39;100227.78;;;44.33;13.21
2675;BME280;1347;42.122;24.746;2023-03-13T09:44:14;100227.41;;;44.37;13.36
2675;BME280;1347;42.122;24.746;2023-03-13T09:46:47;100225.88;;;43.63;13.57
2675;BME280;1347;42.122;24.746;2023-03-13T09:49:27;100220.06;;;42.55;14.08
2675;BME280;1347;42.122;24.746;2023-03-13T09:52:01;100208.50;;;39.43;15.11
2675;BME280;1347;42.122;24.746;2023-03-13T09:54:34;100202.56;;;39.27;14.43
2675;BME280;1347;42.122;24.746;2023-03-13T09:57:06;100191.34;;;34.39;16.34
2675;BME280;1347;42.122;24.746;2023-03-13T09:59:42;100189.94;;;35.70;15.92
2675;BME280;1347;42.122;24.746;2023-03-13T10:02:20;100184.31;;;37.95;15.01
2675;BME280;1347;42.122;24.746;2023-03-13T10:04:56;100184.53;;;37.41;14.83
2675;BME280;1347;42.122;24.746;2023-03-13T10:07:25;100177.63;;;34.26;15.97
2675;BME280;1347;42.122;24.746;2023-03-13T10:09:53;100180.53;;;35.34;15.68
2675;BME280;1347;42.122;24.746;2023-03-13T10:12:22;100180.91;;;38.74;14.32
2675;BME280;1347;42.122;24.746;2023-03-13T10:15:02;100179.34;;;38.59;14.29
2675;BME280;1347;42.122;24.746;2023-03-13T10:17:35;100174.00;;;37.06;14.81
2675;BME280;1347;42.122;24.746;2023-03-13T10:20:17;100177.00;;;35.64;14.88
2675;BME280;1347;42.122;24.746;2023-03-13T10:22:48;100175.09;;;37.03;14.64
2675;BME280;1347;42.122;24.746;2023-03-13T10:25:31;100177.31;;;35.60;15.40
2675;BME280;1347;42.122;24.746;2023-03-13T10:27:59;100163.00;;;35.08;15.25
2675;BME280;1347;42.122;24.746;2023-03-13T10:30:27;100168.03;;;36.31;15.44
2675;BME280;1347;42.122;24.746;2023-03-13T10:32:58;100156.00;;;33.47;15.81
2675;BME280;1347;42.122;24.746;2023-03-13T10:35:33;100158.75;;;32.40;16.38
2675;BME280;1347;42.122;24.746;2023-03-13T10:38:07;100157.41;;;31.58;16.56
2675;BME280;1347;42.122;24.746;2023-03-13T10:40:39;100150.69;;;29.42;15.52
2675;BME280;1347;42.122;24.746;2023-03-13T10:43:17;100156.94;;;27.44;16.72
2675;BME280;1347;42.122;24.746;2023-03-13T10:45:44;100145.25;;;23.68;17.99
2675;BME280;1347;42.122;24.746;2023-03-13T10:48:14;100140.13;;;26.86;17.39
2675;BME280;1347;42.122;24.746;2023-03-13T10:50:44;100140.06;;;26.68;17.93
2675;BME280;1347;42.122;24.746;2023-03-13T10:53:24;100131.81;;;22.37;19.50
2675;BME280;1347;42.122;24.746;2023-03-13T10:55:54;100126.94;;;20.56;21.70
2675;BME280;1347;42.122;24.746;2023-03-13T10:58:29;100121.63;;;21.35;21.30
2675;BME280;1347;42.122;24.746;2023-03-13T11:01:12;100119.16;;;20.17;21.50
2675;BME280;1347;42.122;24.746;2023-03-13T11:03:41;100116.53;;;20.60;22.29
2675;BME280;1347;42.122;24.746;2023-03-13T11:06:23;100109.28;;;19.14;23.31
2675;BME280;1347;42.122;24.746;2023-03-13T11:08:58;100115.69;;;18.66;23.41
2675;BME280;1347;42.122;24.746;2023-03-13T11:11:25;100106.28;;;18.50;22.58
2675;BME280;1347;42.122;24.746;2023-03-13T11:14:06;100098.16;;;18.73;23.33
2675;BME280;1347;42.122;24.746;2023-03-13T11:16:37;100095.41;;;18.73;23.15
2675;BME280;1347;42.122;24.746;2023-03-13T11:19:42;100089.44;;;18.74;23.64
2675;BME280;1347;42.122;24.746;2023-03-13T11:22:32;100086.28;;;18.21;23.58
2675;BME280;1347;42.122;24.746;2023-03-13T11:25:12;100087.94;;;18.11;23.61
2675;BME280;1347;42.122;24.746;2023-03-13T11:27:47;100084.44;;;18.59;24.03
2675;BME280;1347;42.122;24.746;2023-03-13T11:30:20;100081.50;;;17.45;24.60
2675;BME280;1347;42.122;24.746;2023-03-13T11:32:52;100085.16;;;17.27;24.26
2675;BME280;1347;42.122;24.746;2023-03-13T11:35:33;100082.47;;;16.99;24.44
2675;BME280;1347;42.122;24.746;2023-03-13T11:38:06;100078.03;;;17.26;24.22
2675;BME280;1347;42.122;24.746;2023-03-13T11:40:38;100073.13;;;17.70;23.50
2675;BME280;1347;42.122;24.746;2023-03-13T11:43:20;100069.81;;;17.92;23.55
2675;BME280;1347;42.122;24.746;2023-03-13T11:46:00;100066.63;;;17.94;23.35
2675;BME280;1347;42.122;24.746;2023-03-13T11:48:50;100060.63;;;17.12;23.10
2675;BME280;1347;42.122;24.746;2023-03-13T11:51:23;100057.69;;;17.58;23.16
2675;BME280;1347;42.122;24.746;2023-03-13T11:54:16;100058.28;;;17.03;22.34
2675;BME280;1347;42.122;24.746;2023-03-13T11:56:52;100044.50;;;17.87;22.64
2675;BME280;1347;42.122;24.746;2023-03-13T11:59:35;100038.56;;;21.62;20.71
2675;BME280;1347;42.122;24.746;2023-03-13T12:02:15;100025.56;;;23.43;19.18
2675;BME280;1347;42.122;24.746;2023-03-13T12:04:47;100032.88;;;24.55;18.60
2675;BME280;1347;42.122;24.746;2023-03-13T12:07:20;100017.47;;;24.25;18.82
2675;BME280;1347;42.122;24.746;2023-03-13T12:09:53;100020.97;;;23.37;19.78
2675;BME280;1347;42.122;24.746;2023-03-13T12:12:31;100018.22;;;21.62;20.71
2675;BME280;1347;42.122;24.746;2023-03-13T12:15:06;100008.91;;;21.68;20.80
2675;BME280;1347;42.122;24.746;2023-03-13T12:17:43;100015.59;;;23.42;19.72
2675;BME280;1347;42.122;24.746;2023-03-13T12:20:19;100018.22;;;24.51;18.91
2675;BME280;1347;42.122;24.746;2023-03-13T12:22:53;100012.19;;;24.74;18.64
2675;BME280;1347;42.122;24.746;2023-03-13T12:25:24;100012.13;;;25.43;18.55
2675;BME280;1347;42.122;24.746;2023-03-13T12:27:56;100011.81;;;26.12;18.03
2675;BME280;1347;42.122;24.746;2023-03-13T12:30:32;100017.91;;;26.11;18.75
2675;BME280;1347;42.122;24.746;2023-03-13T12:33:09;100002.78;;;22.10;20.06
2675;BME280;1347;42.122;24.746;2023-03-13T12:35:42;100006.94;;;21.10;20.94
2675;BME280;1347;42.122;24.746;2023-03-13T12:38:14;99999.59;;;21.75;20.62
2675;BME280;1347;42.122;24.746;2023-03-13T12:40:49;100004.78;;;21.93;20.72
2675;BME280;1347;42.122;24.746;2023-03-13T12:43:21;100004.25;;;21.46;20.72
2675;BME280;1347;42.122;24.746;2023-03-13T12:46:09;99994.81;;;21.40;20.62
2675;BME280;1347;42.122;24.746;2023-03-13T12:48:50;100006.28;;;21.25;20.38
2675;BME280;1347;42.122;24.746;2023-03-13T12:51:35;100008.84;;;20.03;20.81
2675;BME280;1347;42.122;24.746;2023-03-13T12:54:16;100004.97;;;20.20;21.55
2675;BME280;1347;42.122;24.746;2023-03-13T12:57:02;100011.97;;;20.55;21.44
2675;BME280;1347;42.122;24.746;2023-03-13T12:59:34;100014.75;;;21.18;20.22
2675;BME280;1347;42.122;24.746;2023-03-13T13:02:13;100019.91;;;21.20;19.89
2675;BME280;1347;42.122;24.746;2023-03-13T13:04:44;100000.06;;;20.28;21.11
2675;BME280;1347;42.122;24.746;2023-03-13T13:07:21;99999.84;;;19.65;22.09
2675;BME280;1347;42.122;24.746;2023-03-13T13:10:03;99994.66;;;20.44;21.70
2675;BME280;1347;42.122;24.746;2023-03-13T13:12:42;99998.75;;;20.13;21.86
2675;BME280;1347;42.122;24.746;2023-03-13T13:15:18;99998.44;;;20.31;21.70
2675;BME280;1347;42.122;24.746;2023-03-13T13:18:00;99987.53;;;19.93;21.71
2675;BME280;1347;42.122;24.746;2023-03-13T13:20:41;99995.38;;;20.25;21.61
2675;BME280;1347;42.122;24.746;2023-03-13T13:23:21;99975.88;;;21.67;21.03